createdAt,value
2022-12-09T00:00:57.545Z,25.80
2022-12-09T00:03:24.460Z,27.05
2022-12-09T00:05:51.334Z,24.85
2022-12-09T00:08:18.271Z,25.00
2022-12-09T00:10:45.448Z,23.58
2022-12-09T00:13:13.145Z,24.60
2022-12-09T00:15:42.485Z,27.67
2022-12-09T00:18:10.172Z,28.73
2022-12-09T00:20:36.816Z,28.70
2022-12-09T00:23:03.571Z,25.88
2022-12-09T00:25:30.272Z,26.95
2022-12-09T00:27:57.280Z,26.40
2022-12-09T00:30:23.895Z,27.00
2022-12-09T00:32:50.749Z,26.00
2022-12-09T00:35:17.622Z,33.88
2022-12-09T00:37:44.324Z,33.20
2022-12-09T00:40:11.931Z,28.27
2022-12-09T00:42:38.805Z,28.65
2022-12-09T00:45:06.111Z,31.52
2022-12-09T00:47:32.946Z,25.92
2022-12-09T00:49:59.683Z,25.27
2022-12-09T00:52:26.390Z,24.08
2022-12-09T00:54:53.076Z,21.63
2022-12-09T00:57:19.853Z,22.38
2022-12-09T00:59:46.522Z,19.70
2022-12-09T01:02:13.226Z,19.38
2022-12-09T01:04:39.942Z,20.55
2022-12-09T01:07:06.537Z,21.55
2022-12-09T01:09:34.439Z,17.77
2022-12-09T01:12:01.568Z,19.15
2022-12-09T01:14:28.347Z,16.25
2022-12-09T01:16:55.292Z,19.02
2022-12-09T01:19:21.966Z,19.23
2022-12-09T01:21:48.670Z,17.35
2022-12-09T01:24:15.371Z,17.05
2022-12-09T01:26:42.240Z,23.85
2022-12-09T01:29:09.098Z,22.92
2022-12-09T01:31:35.907Z,18.77
2022-12-09T01:34:02.802Z,21.63
2022-12-09T01:36:31.124Z,23.20
2022-12-09T01:38:58.476Z,25.58
2022-12-09T01:41:25.244Z,25.05
2022-12-09T01:44:09.841Z,24.33
2022-12-09T01:46:36.735Z,22.85
2022-12-09T01:49:03.842Z,21.48
2022-12-09T01:51:31.000Z,20.55
2022-12-09T01:53:57.694Z,19.02
2022-12-09T01:56:27.177Z,21.48
2022-12-09T01:58:53.912Z,19.63
2022-12-09T02:01:20.753Z,21.88
2022-12-09T02:03:47.856Z,22.20
2022-12-09T02:06:14.902Z,20.95
2022-12-09T02:08:41.831Z,19.85
2022-12-09T02:11:18.395Z,18.38
2022-12-09T02:14:15.906Z,20.83
2022-12-09T02:16:56.318Z,19.67
2022-12-09T02:19:36.786Z,17.63
2022-12-09T02:22:03.584Z,18.30
2022-12-09T02:24:59.074Z,17.52
2022-12-09T02:27:31.247Z,18.20
2022-12-09T02:30:05.304Z,18.52
2022-12-09T02:33:09.219Z,14.02
2022-12-09T02:35:39.439Z,15.70
2022-12-09T02:38:15.699Z,13.02
2022-12-09T02:40:51.056Z,13.30
2022-12-09T02:43:19.643Z,13.75
2022-12-09T02:45:46.286Z,16.52
2022-12-09T02:48:14.342Z,15.95
2022-12-09T02:50:41.331Z,14.13
2022-12-09T02:53:10.466Z,12.02
2022-12-09T02:55:37.456Z,12.88
2022-12-09T02:58:04.266Z,8.82
2022-12-09T03:00:30.925Z,9.50
2022-12-09T03:03:00.363Z,10.20
2022-12-09T03:06:05.346Z,8.65
2022-12-09T03:08:51.750Z,8.73
2022-12-09T03:11:20.659Z,8.77
2022-12-09T03:14:03.701Z,8.85
2022-12-09T03:16:34.164Z,9.68
2022-12-09T03:19:22.179Z,8.45
2022-12-09T03:21:50.058Z,9.35
2022-12-09T03:24:20.876Z,8.18
2022-12-09T03:26:47.790Z,9.32
2022-12-09T03:29:17.126Z,10.32
2022-12-09T03:31:43.854Z,8.05
2022-12-09T03:34:11.478Z,10.35
2022-12-09T03:36:39.169Z,8.43
2022-12-09T03:39:07.516Z,9.48
2022-12-09T03:41:34.779Z,8.55
2022-12-09T03:44:08.534Z,7.75
2022-12-09T03:46:35.354Z,8.43
2022-12-09T03:49:02.151Z,8.75
2022-12-09T03:51:32.822Z,8.25
2022-12-09T03:54:04.024Z,9.05
2022-12-09T03:56:34.796Z,8.70
2022-12-09T03:59:01.851Z,8.55
2022-12-09T04:01:28.900Z,8.27
2022-12-09T04:03:56.339Z,10.00
2022-12-09T04:06:23.296Z,8.90
2022-12-09T04:08:50.249Z,8.95
2022-12-09T04:11:17.154Z,9.07
2022-12-09T04:13:43.858Z,8.70
2022-12-09T04:16:10.819Z,10.20
2022-12-09T04:18:37.607Z,10.77
2022-12-09T04:21:07.936Z,9.70
2022-12-09T04:23:38.005Z,11.73
2022-12-09T04:26:09.807Z,11.07
2022-12-09T04:28:36.660Z,10.82
2022-12-09T04:31:03.623Z,10.93
2022-12-09T04:33:30.577Z,11.25
2022-12-09T04:36:05.022Z,10.57
2022-12-09T04:38:31.716Z,10.15
2022-12-09T04:41:00.362Z,11.48
2022-12-09T04:43:27.500Z,11.02
2022-12-09T04:45:54.308Z,10.40
2022-12-09T04:48:21.089Z,11.85
2022-12-09T04:50:47.679Z,10.98
2022-12-09T04:53:14.520Z,10.10
2022-12-09T04:55:41.431Z,9.98
2022-12-09T04:58:08.240Z,10.38
2022-12-09T05:00:35.012Z,13.07
2022-12-09T05:03:01.831Z,10.30
2022-12-09T05:05:28.583Z,12.50
2022-12-09T05:07:55.733Z,11.85
2022-12-09T05:10:22.870Z,11.48
2022-12-09T05:12:49.727Z,10.80
2022-12-09T05:15:16.422Z,11.25
2022-12-09T05:17:43.198Z,12.45
2022-12-09T05:20:11.025Z,11.98
2022-12-09T05:22:38.554Z,12.60
2022-12-09T05:25:05.735Z,10.73
2022-12-09T05:27:32.434Z,10.98
2022-12-09T05:29:59.072Z,11.93
2022-12-09T05:32:29.062Z,11.20
2022-12-09T05:34:56.416Z,11.68
2022-12-09T05:37:23.033Z,12.63
2022-12-09T05:39:49.808Z,11.85
2022-12-09T05:42:16.677Z,12.23
2022-12-09T05:44:43.419Z,11.00
2022-12-09T05:47:10.139Z,12.50
2022-12-09T05:49:39.011Z,12.60
2022-12-09T05:52:06.283Z,12.95
2022-12-09T05:54:33.179Z,13.43
2022-12-09T05:57:01.259Z,12.70
2022-12-09T05:59:28.182Z,13.50
2022-12-09T06:01:55.105Z,13.18
2022-12-09T06:04:22.170Z,12.73
2022-12-09T06:06:49.246Z,13.25
2022-12-09T06:09:16.828Z,13.00
2022-12-09T06:11:43.770Z,14.25
2022-12-09T06:14:11.320Z,12.50
2022-12-09T06:16:38.249Z,12.52
2022-12-09T06:19:05.812Z,15.57
2022-12-09T06:21:33.007Z,12.18
2022-12-09T06:23:59.977Z,11.63
2022-12-09T06:26:28.974Z,10.98
2022-12-09T06:28:56.154Z,11.20
2022-12-09T06:31:23.113Z,13.77
2022-12-09T06:33:55.407Z,11.18
2022-12-09T06:36:24.228Z,10.50
2022-12-09T06:38:51.345Z,9.18
2022-12-09T06:41:18.124Z,9.68
2022-12-09T06:43:45.479Z,10.18
2022-12-09T06:46:13.863Z,10.95
2022-12-09T06:48:41.037Z,10.95
2022-12-09T06:51:08.212Z,12.40
2022-12-09T06:53:35.365Z,10.60
2022-12-09T06:56:09.584Z,9.27
2022-12-09T06:58:38.570Z,10.40
2022-12-09T07:01:13.664Z,9.52
2022-12-09T07:03:42.074Z,9.30
2022-12-09T07:06:37.421Z,9.27
2022-12-09T07:09:09.649Z,9.32
2022-12-09T07:11:36.922Z,10.45
2022-12-09T07:14:03.816Z,9.43
2022-12-09T07:16:30.675Z,8.95
2022-12-09T07:18:58.351Z,9.15
2022-12-09T07:21:25.596Z,8.50
2022-12-09T07:23:52.623Z,9.63
2022-12-09T07:26:19.475Z,9.30
2022-12-09T07:28:48.823Z,9.90
2022-12-09T07:31:24.992Z,11.20
2022-12-09T07:33:52.639Z,12.50
2022-12-09T07:36:21.426Z,10.98
2022-12-09T07:38:49.799Z,9.38
2022-12-09T07:41:19.716Z,10.82
2022-12-09T07:43:47.459Z,12.68
2022-12-09T07:46:14.946Z,12.00
2022-12-09T07:48:41.916Z,10.18
2022-12-09T07:51:09.140Z,10.32
2022-12-09T07:53:36.101Z,11.18
2022-12-09T07:56:05.254Z,12.00
2022-12-09T07:58:32.182Z,12.63
2022-12-09T08:01:07.618Z,14.45
2022-12-09T08:03:35.864Z,12.15
2022-12-09T08:06:03.008Z,13.32
2022-12-09T08:08:31.125Z,12.95
2022-12-09T08:11:08.011Z,12.77
2022-12-09T08:13:35.857Z,13.80
2022-12-09T08:16:05.286Z,13.68
2022-12-09T08:18:33.337Z,15.07
2022-12-09T08:21:02.853Z,15.43
2022-12-09T08:23:29.674Z,14.18
2022-12-09T08:25:56.817Z,12.80
2022-12-09T08:28:24.582Z,14.45
2022-12-09T08:30:51.564Z,15.45
2022-12-09T08:33:18.953Z,12.55
2022-12-09T08:35:45.906Z,12.88
2022-12-09T08:38:15.569Z,13.40
2022-12-09T08:40:42.334Z,13.23
2022-12-09T08:43:09.637Z,12.60
2022-12-09T08:45:37.913Z,14.02
2022-12-09T08:48:05.476Z,17.67
2022-12-09T08:50:32.459Z,15.73
2022-12-09T08:52:59.677Z,16.98
2022-12-09T08:55:27.136Z,15.20
2022-12-09T08:57:55.387Z,17.85
2022-12-09T09:00:22.440Z,16.10
2022-12-09T09:02:49.266Z,16.25
2022-12-09T09:05:16.562Z,16.77
2022-12-09T09:07:43.855Z,17.38
2022-12-09T09:10:11.854Z,17.08
2022-12-09T09:12:43.290Z,18.38
2022-12-09T09:15:11.471Z,16.52
2022-12-09T09:17:38.625Z,15.75
2022-12-09T09:20:06.635Z,15.43
2022-12-09T09:22:34.618Z,17.10
2022-12-09T09:25:01.638Z,16.50
2022-12-09T09:27:28.440Z,20.27
2022-12-09T09:29:55.599Z,18.98
2022-12-09T09:32:22.549Z,19.35
2022-12-09T09:34:50.748Z,18.77
2022-12-09T09:37:17.724Z,18.45
2022-12-09T09:39:44.773Z,20.52
2022-12-09T09:42:17.765Z,19.38
2022-12-09T09:44:46.465Z,18.60
2022-12-09T09:47:20.018Z,19.45
2022-12-09T09:50:03.780Z,18.38
2022-12-09T09:52:31.119Z,17.52
2022-12-09T09:54:58.603Z,17.17
2022-12-09T09:57:38.517Z,15.18
2022-12-09T10:00:22.869Z,18.25
2022-12-09T10:03:01.055Z,18.42
2022-12-09T10:05:33.619Z,17.17
2022-12-09T10:08:26.424Z,18.92
2022-12-09T10:11:23.782Z,22.88
2022-12-09T10:14:09.150Z,19.30
2022-12-09T10:16:43.179Z,17.70
2022-12-09T10:21:54.787Z,19.08
2022-12-09T10:24:26.215Z,17.58
2022-12-09T10:27:10.377Z,19.92
2022-12-09T10:29:59.928Z,18.55
2022-12-09T10:32:31.753Z,16.35
2022-12-09T10:34:59.239Z,15.90
2022-12-09T10:40:14.305Z,16.73
2022-12-09T10:43:11.019Z,16.92
2022-12-09T10:48:50.789Z,19.45
2022-12-09T10:54:02.685Z,20.98
2022-12-09T10:56:34.110Z,18.42
2022-12-09T10:59:24.863Z,16.73
2022-12-09T11:04:51.332Z,17.23
2022-12-09T11:07:19.922Z,17.02
2022-12-09T11:10:07.036Z,17.33
2022-12-09T11:12:40.930Z,16.92
2022-12-09T11:15:30.479Z,16.65
2022-12-09T11:18:03.404Z,18.92
2022-12-09T11:20:31.677Z,18.83
2022-12-09T11:23:00.988Z,16.80
2022-12-09T11:25:30.289Z,18.42
2022-12-09T11:28:00.747Z,17.75
2022-12-09T11:30:40.663Z,16.75
2022-12-09T11:33:20.649Z,22.58
2022-12-09T11:38:42.433Z,19.02
2022-12-09T11:43:52.023Z,18.38
2022-12-09T11:46:29.379Z,20.58
2022-12-09T11:49:00.699Z,21.83
2022-12-09T11:51:30.139Z,19.73
2022-12-09T11:54:04.568Z,21.25
2022-12-09T11:56:31.366Z,19.02
2022-12-09T11:59:03.227Z,18.48
2022-12-09T12:02:09.853Z,18.35
2022-12-09T12:04:41.490Z,18.25
2022-12-09T12:07:21.716Z,20.37
2022-12-09T12:09:54.319Z,18.88
2022-12-09T12:14:52.219Z,19.08
2022-12-09T12:17:31.843Z,20.20
2022-12-09T12:19:58.588Z,19.25
2022-12-09T12:22:54.731Z,21.88
2022-12-09T12:25:36.248Z,20.25
2022-12-09T12:31:08.602Z,19.60
2022-12-09T12:36:46.539Z,20.95
2022-12-09T12:39:38.530Z,21.02
2022-12-09T12:42:29.987Z,18.83
2022-12-09T12:45:44.122Z,20.58
2022-12-09T12:48:15.843Z,20.33
2022-12-09T12:50:50.988Z,21.55
2022-12-09T12:53:42.402Z,17.08
2022-12-09T12:56:19.383Z,18.50
2022-12-09T12:58:55.820Z,17.02
2022-12-09T13:01:58.024Z,18.58
2022-12-09T13:04:39.053Z,20.73
2022-12-09T13:07:16.406Z,19.02
2022-12-09T13:09:45.951Z,19.52
2022-12-09T13:12:44.467Z,22.42
2022-12-09T13:15:15.543Z,21.25
2022-12-09T13:17:42.557Z,19.73
2022-12-09T13:20:13.625Z,23.30
2022-12-09T13:23:01.946Z,21.48
2022-12-09T13:28:13.343Z,23.77
2022-12-09T13:30:49.740Z,25.13
2022-12-09T13:34:00.347Z,24.10
2022-12-09T13:36:40.111Z,23.15
2022-12-09T13:39:10.273Z,21.05
2022-12-09T13:41:58.466Z,22.40
2022-12-09T13:44:29.430Z,24.42
2022-12-09T13:47:13.296Z,20.77
2022-12-09T13:49:39.910Z,23.00
2022-12-09T13:52:06.522Z,21.25
2022-12-09T13:54:47.702Z,22.58
2022-12-09T13:59:54.180Z,24.55
2022-12-09T14:02:25.400Z,22.45
2022-12-09T14:05:05.474Z,23.50
2022-12-09T14:07:43.137Z,23.75
2022-12-09T14:10:46.250Z,24.20
2022-12-09T14:16:17.031Z,20.63
2022-12-09T14:18:44.371Z,21.13
2022-12-09T14:21:27.849Z,23.92
2022-12-09T14:26:47.766Z,23.88
2022-12-09T14:29:54.382Z,20.58
2022-12-09T14:32:29.716Z,22.50
2022-12-09T14:38:03.349Z,20.30
2022-12-09T14:40:56.207Z,23.65
2022-12-09T14:46:32.893Z,26.17
2022-12-09T14:49:13.474Z,26.38
2022-12-09T14:51:58.821Z,21.63
2022-12-09T14:54:37.430Z,24.38
2022-12-09T14:57:07.109Z,22.10
2022-12-09T14:59:34.134Z,22.08
2022-12-09T15:02:02.803Z,22.08
2022-12-09T15:04:31.976Z,20.05
2022-12-09T15:07:30.846Z,23.00
2022-12-09T15:10:00.466Z,28.55
2022-12-09T15:12:36.162Z,24.55
2022-12-09T15:15:20.375Z,21.08
2022-12-09T15:17:54.852Z,22.42
2022-12-09T15:20:31.398Z,20.08
2022-12-09T15:23:01.823Z,21.52
2022-12-09T15:25:28.593Z,19.02
2022-12-09T15:28:00.294Z,19.77
2022-12-09T15:30:33.572Z,18.08
2022-12-09T15:33:00.315Z,20.55
2022-12-09T15:35:29.526Z,23.63
2022-12-09T15:37:58.280Z,19.17
2022-12-09T15:40:29.054Z,23.40
2022-12-09T15:42:59.092Z,21.52
2022-12-09T15:45:31.619Z,19.67
2022-12-09T15:50:33.476Z,21.80
2022-12-09T15:53:11.101Z,22.60
2022-12-09T15:55:40.899Z,22.30
2022-12-09T15:58:09.796Z,21.25
2022-12-09T16:00:39.835Z,20.75
2022-12-09T16:03:07.421Z,27.00
2022-12-09T16:05:38.480Z,22.13
2022-12-09T16:08:08.316Z,21.83
2022-12-09T16:10:45.503Z,22.55
2022-12-09T16:13:13.676Z,22.33
2022-12-09T16:15:44.769Z,23.83
2022-12-09T16:18:17.427Z,24.38
2022-12-09T16:20:45.642Z,21.65
2022-12-09T16:23:20.794Z,26.08
2022-12-09T16:25:48.970Z,23.98
2022-12-09T16:28:22.327Z,23.02
2022-12-09T16:30:50.411Z,26.10
2022-12-09T16:33:18.896Z,24.98
2022-12-09T16:35:54.804Z,25.95
2022-12-09T16:38:21.609Z,23.20
2022-12-09T16:40:54.580Z,25.27
2022-12-09T16:43:22.651Z,24.13
2022-12-09T16:45:51.599Z,24.10
2022-12-09T16:48:19.247Z,25.20
2022-12-09T16:51:09.542Z,24.90
2022-12-09T16:53:45.365Z,22.77
2022-12-09T16:56:21.012Z,24.15
2022-12-09T16:58:47.736Z,24.58
2022-12-09T17:01:15.405Z,21.95
2022-12-09T17:03:44.512Z,24.65
2022-12-09T17:06:13.849Z,21.88
2022-12-09T17:08:40.488Z,24.23
2022-12-09T17:11:07.167Z,20.52
2022-12-09T17:13:33.883Z,22.75
2022-12-09T17:16:01.717Z,22.65
2022-12-09T17:18:28.880Z,20.83
2022-12-09T17:21:04.418Z,25.15
2022-12-09T17:23:36.081Z,24.35
2022-12-09T17:26:07.242Z,26.98
2022-12-09T17:28:35.294Z,24.70
2022-12-09T17:31:01.910Z,23.35
2022-12-09T17:33:29.112Z,28.17
2022-12-09T17:35:56.089Z,27.75
2022-12-09T17:38:23.022Z,24.08
2022-12-09T17:40:49.669Z,22.38
2022-12-09T17:43:16.340Z,24.48
2022-12-09T17:45:43.056Z,25.77
2022-12-09T17:48:09.899Z,24.45
2022-12-09T17:50:38.671Z,26.67
2022-12-09T17:53:05.417Z,24.38
2022-12-09T17:55:32.079Z,23.20
2022-12-09T17:57:58.701Z,25.83
2022-12-09T18:00:25.346Z,24.98
2022-12-09T18:02:51.979Z,26.85
2022-12-09T18:05:18.639Z,24.48
2022-12-09T18:07:45.254Z,28.13
2022-12-09T18:10:12.228Z,26.98
2022-12-09T18:12:41.225Z,25.42
2022-12-09T18:15:08.078Z,25.42
2022-12-09T18:17:34.868Z,26.48
2022-12-09T18:20:01.687Z,27.73
2022-12-09T18:22:28.271Z,27.98
2022-12-09T18:24:54.966Z,26.85
2022-12-09T18:27:21.658Z,23.30
2022-12-09T18:29:48.396Z,25.42
2022-12-09T18:32:15.310Z,25.38
2022-12-09T18:34:42.764Z,27.08
2022-12-09T18:37:09.716Z,26.10
2022-12-09T18:39:36.904Z,26.27
2022-12-09T18:42:03.749Z,23.60
2022-12-09T18:44:30.366Z,23.13
2022-12-09T18:46:57.069Z,26.02
2022-12-09T18:49:24.678Z,26.48
2022-12-09T18:51:52.374Z,26.77
2022-12-09T18:54:23.438Z,23.67
2022-12-09T18:56:50.828Z,21.35
2022-12-09T18:59:18.017Z,25.80
2022-12-09T19:01:45.480Z,26.33
2022-12-09T19:04:14.481Z,24.42
2022-12-09T19:06:42.472Z,27.23
2022-12-09T19:09:12.224Z,27.13
2022-12-09T19:11:39.729Z,25.45
2022-12-09T19:14:06.921Z,26.23
2022-12-09T19:16:33.569Z,23.75
2022-12-09T19:19:05.440Z,22.52
2022-12-09T19:21:34.095Z,25.02
2022-12-09T19:24:00.983Z,24.85
2022-12-09T19:26:29.976Z,24.55
2022-12-09T19:28:58.158Z,26.20
2022-12-09T19:31:28.045Z,25.70
2022-12-09T19:33:55.788Z,21.98
2022-12-09T19:36:23.334Z,24.50
2022-12-09T19:38:50.773Z,24.40
2022-12-09T19:41:17.868Z,23.45
2022-12-09T19:43:44.808Z,22.55
2022-12-09T19:46:13.154Z,21.33
2022-12-09T19:48:41.866Z,24.50
2022-12-09T19:51:09.455Z,22.33
2022-12-09T19:53:36.483Z,23.50
2022-12-09T19:56:04.691Z,22.05
2022-12-09T19:58:31.318Z,21.67
2022-12-09T20:00:58.344Z,23.90
2022-12-09T20:03:25.292Z,25.52
2022-12-09T20:05:54.117Z,46.28
2022-12-09T20:08:20.952Z,29.10
2022-12-09T20:10:47.823Z,24.15
2022-12-09T20:13:14.677Z,29.88
2022-12-09T20:15:41.984Z,22.58
2022-12-09T20:18:09.200Z,25.20
2022-12-09T20:20:36.335Z,25.48
2022-12-09T20:23:03.105Z,22.92
2022-12-09T20:25:29.779Z,24.80
2022-12-09T20:27:57.001Z,25.65
2022-12-09T20:30:23.719Z,27.25
2022-12-09T20:32:50.327Z,24.50
2022-12-09T20:35:16.975Z,23.70
2022-12-09T20:37:43.942Z,24.08
2022-12-09T20:40:10.935Z,24.23
2022-12-09T20:42:37.773Z,23.50
2022-12-09T20:45:04.847Z,24.98
2022-12-09T20:47:31.624Z,24.77
2022-12-09T20:49:58.237Z,23.77
2022-12-09T20:52:24.925Z,25.30
2022-12-09T20:54:51.716Z,25.60
2022-12-09T20:57:18.378Z,26.25
2022-12-09T20:59:45.005Z,24.70
2022-12-09T21:02:13.921Z,25.83
2022-12-09T21:04:40.587Z,25.52
2022-12-09T21:07:07.234Z,27.17
2022-12-09T21:09:33.985Z,27.75
2022-12-09T21:12:00.625Z,27.75
2022-12-09T21:14:32.590Z,30.65
2022-12-09T21:16:59.540Z,26.75
2022-12-09T21:19:29.940Z,27.48
2022-12-09T21:21:59.341Z,26.95
2022-12-09T21:24:26.149Z,25.73
2022-12-09T21:26:53.701Z,23.98
2022-12-09T21:29:20.423Z,25.83
2022-12-09T21:31:48.603Z,24.88
2022-12-09T21:34:15.394Z,25.95
2022-12-09T21:36:43.154Z,29.05
2022-12-09T21:39:12.933Z,29.52
2022-12-09T21:41:39.544Z,25.88
2022-12-09T21:44:07.641Z,28.00
2022-12-09T21:46:35.949Z,29.75
2022-12-09T21:49:04.502Z,29.35
2022-12-09T21:51:31.823Z,26.42
2022-12-09T21:53:58.541Z,24.55
2022-12-09T21:56:27.617Z,24.13
2022-12-09T21:58:55.650Z,23.40
2022-12-09T22:01:26.041Z,25.73
2022-12-09T22:03:52.762Z,22.75
2022-12-09T22:06:19.472Z,25.40
2022-12-09T22:08:46.327Z,26.27
2022-12-09T22:11:18.493Z,25.23
2022-12-09T22:13:45.214Z,24.13
2022-12-09T22:16:13.718Z,27.08
2022-12-09T22:18:40.832Z,24.85
2022-12-09T22:21:26.725Z,24.60
2022-12-09T22:23:55.412Z,25.42
2022-12-09T22:26:22.337Z,23.05
2022-12-09T22:28:49.298Z,26.17
2022-12-09T22:31:20.434Z,27.58
2022-12-09T22:33:47.528Z,26.27
2022-12-09T22:36:14.463Z,25.05
2022-12-09T22:38:41.715Z,27.92
2022-12-09T22:41:10.908Z,27.52
2022-12-09T22:43:38.300Z,25.73
2022-12-09T22:46:07.318Z,25.23
2022-12-09T22:48:34.115Z,24.95
2022-12-09T22:51:03.810Z,24.13
2022-12-09T22:53:30.449Z,24.23
2022-12-09T22:55:57.324Z,22.33
2022-12-09T22:58:24.023Z,26.08
2022-12-09T23:00:50.634Z,22.23
2022-12-09T23:03:18.100Z,21.60
2022-12-09T23:05:44.811Z,22.20
2022-12-09T23:08:12.373Z,22.23
2022-12-09T23:10:39.674Z,24.23
2022-12-09T23:13:06.469Z,24.70
2022-12-09T23:15:33.849Z,22.77
2022-12-09T23:18:00.648Z,25.15
2022-12-09T23:20:27.443Z,20.15
2022-12-09T23:22:54.328Z,21.95
2022-12-09T23:25:20.943Z,21.70
2022-12-09T23:27:47.515Z,22.27
2022-12-09T23:30:14.157Z,27.27
2022-12-09T23:32:40.958Z,26.15
2022-12-09T23:35:08.093Z,26.95
2022-12-09T23:37:34.836Z,24.33
2022-12-09T23:40:01.583Z,25.67
2022-12-09T23:42:28.245Z,32.40
2022-12-09T23:44:55.119Z,26.20
2022-12-09T23:47:21.799Z,24.00
2022-12-09T23:49:48.417Z,25.73
2022-12-09T23:52:15.028Z,22.20
2022-12-09T23:54:41.631Z,22.95
2022-12-09T23:57:08.222Z,22.67
2022-12-09T23:59:34.840Z,22.90
